Flight Track Log - Related Links

Times and Time Zones

All times are in EST time to prevent confusion due to time zone crossing. See the DAL374 flight status page for this flight to view local times or setup timezone preferences in your user account.

Time Position Orientation Groundspeed Altitude Reporting Facility
EST Latitude Longitude Course Direction KTS MPH feet Rate Location/Type
Fri 03:09:00 PM 13.5650 -89.0636 356° North  Level FlightAware Approximate
Fri 03:10:00 PM 13.6890 -89.0715 356° North  Level FlightAware Approximate
Fri 03:11:00 PM 13.8131 -89.0795 356° North  Level FlightAware Approximate
Fri 03:12:00 PM 13.9372 -89.0874 356° North  Level FlightAware Approximate
Fri 03:13:00 PM 14.0592 -89.0952 356° North  Level FlightAware Approximate
Fri 03:14:00 PM 14.1812 -89.1030 356° North  Level FlightAware Approximate
Fri 03:15:00 PM 14.3032 -89.1108 356° North  Level FlightAware Approximate
Fri 03:16:00 PM 14.4253 -89.1187 356° North  Level FlightAware Approximate
Fri 03:17:00 PM 14.5473 -89.1265 356° North  Level FlightAware Approximate
Fri 03:18:00 PM 14.6693 -89.1344 356° North  Level FlightAware Approximate
Fri 03:19:00 PM 14.7914 -89.1423 356° North  Level FlightAware Approximate
Fri 03:20:00 PM 14.9134 -89.1501 356° North  Level FlightAware Approximate
Fri 03:21:00 PM 15.0354 -89.1580 356° North  Level FlightAware Approximate
Fri 03:22:00 PM 15.1574 -89.1659 356° North  Level FlightAware Approximate
Fri 03:23:00 PM 15.2794 -89.1738 356° North  Level FlightAware Approximate
Fri 03:24:00 PM 15.4015 -89.1817 356° North  Level FlightAware Approximate
Fri 03:25:00 PM 15.5235 -89.1896 356° North  Level FlightAware Approximate
Fri 03:26:00 PM 15.6455 -89.1975 356° North  Level FlightAware Approximate
Fri 03:27:00 PM 15.7675 -89.2066 356° North  Level FlightAware Approximate
Fri 03:28:00 PM 15.8894 -89.2161 356° North  Level FlightAware Approximate
Fri 03:29:00 PM 16.0113 -89.2256 356° North  Level FlightAware Approximate
Fri 03:30:00 PM 16.1332 -89.2351 356° North  Level FlightAware Approximate
Fri 03:31:00 PM 16.2551 -89.2447 356° North  Level FlightAware Approximate
Fri 03:32:00 PM 16.3771 -89.2542 356° North  Level FlightAware Approximate
Fri 03:33:00 PM 16.4990 -89.2638 356° North  Level FlightAware Approximate
Fri 03:34:00 PM 16.6209 -89.2734 356° North  Level FlightAware Approximate
Fri 03:35:00 PM 16.7428 -89.2830 356° North  Level FlightAware Approximate
Fri 03:36:00 PM 16.8647 -89.2926 356° North  Level FlightAware Approximate
Fri 03:37:00 PM 16.9867 -89.3022 356° North  Level FlightAware Approximate
Fri 03:38:00 PM 17.1086 -89.3118 356° North  Level FlightAware Approximate
Fri 03:39:00 PM 17.2305 -89.3214 356° North  Level FlightAware Approximate
Fri 03:40:00 PM 17.3524 -89.3311 356° North  Level FlightAware Approximate
Fri 03:41:00 PM 17.4743 -89.3408 356° North  Level FlightAware Approximate
Fri 03:42:00 PM 17.5962 -89.3505 356° North  Level FlightAware Approximate
Fri 03:43:00 PM 17.7181 -89.3602 356° North  Level FlightAware Approximate
Fri 03:44:00 PM 17.8400 -89.3697 356° North  Level FlightAware Approximate
Fri 03:45:00 PM 17.9620 -89.3791 356° North  Level FlightAware Approximate
Fri 03:46:00 PM 18.0839 -89.3884 356° North  Level FlightAware Approximate
Fri 03:47:00 PM 18.2059 -89.3978 356° North  Level FlightAware Approximate
Fri 03:48:00 PM 18.3278 -89.4071 356° North  Level FlightAware Approximate
Fri 03:49:00 PM 18.4497 -89.4165 356° North  Level FlightAware Approximate
Fri 03:50:00 PM 18.5717 -89.4259 356° North  Level FlightAware Approximate
Fri 03:51:00 PM 18.6936 -89.4353 356° North  Level FlightAware Approximate
Fri 03:52:00 PM 18.8156 -89.4448 356° North  Level FlightAware Approximate
Fri 03:53:00 PM 18.9375 -89.4542 356° North  Level FlightAware Approximate
Fri 03:54:00 PM 19.0594 -89.4637 356° North  Level FlightAware Approximate
Fri 03:55:00 PM 19.1814 -89.4731 356° North  Level FlightAware Approximate
Fri 03:56:00 PM 19.3033 -89.4826 356° North  Level FlightAware Approximate
Fri 03:57:00 PM 19.4252 -89.4921 356° North  Level FlightAware Approximate
Fri 03:58:00 PM 19.5471 -89.5016 356° North  Level FlightAware Approximate
Fri 03:59:00 PM 19.6691 -89.5111 356° North  Level FlightAware Approximate
Fri 04:00:00 PM 19.7910 -89.5207 356° North  Level FlightAware Approximate
Fri 04:01:00 PM 19.9129 -89.5302 356° North  Level FlightAware Approximate
Fri 04:02:00 PM 20.0349 -89.5398 356° North  Level FlightAware Approximate
Fri 04:03:00 PM 20.1568 -89.5494 356° North  Level FlightAware Approximate
Fri 04:04:00 PM 20.2787 -89.5590 356° North  Level FlightAware Approximate
Fri 04:05:00 PM 20.4007 -89.5686 356° North  Level FlightAware Approximate
Fri 04:06:00 PM 20.5226 -89.5782 356° North  Level FlightAware Approximate
Fri 04:07:00 PM 20.6445 -89.5879 356° North  Level FlightAware Approximate
Fri 04:08:00 PM 20.7664 -89.5975 356° North  Level FlightAware Approximate
Fri 04:09:00 PM 20.8884 -89.6072 356° North  Level FlightAware Approximate
Fri 04:10:00 PM 21.0103 -89.6169 356° North  Level FlightAware Approximate
Fri 04:11:00 PM 21.1322 -89.6266 356° North  Level FlightAware Approximate
Fri 04:12:00 PM 21.2542 -89.6363 356° North  Level FlightAware Approximate
Fri 04:13:00 PM 21.3761 -89.6461 356° North  Level FlightAware Approximate
Fri 04:14:00 PM 21.4980 -89.6558 356° North  Level FlightAware Approximate
Fri 04:15:00 PM 21.6199 -89.6656 356° North  Level FlightAware Approximate
Fri 04:16:00 PM 21.7418 -89.6757 356° North  Level FlightAware Approximate
Fri 04:17:00 PM 21.8637 -89.6858 356° North  Level FlightAware Approximate
Fri 04:18:00 PM 21.9856 -89.6960 356° North  Level FlightAware Approximate
Fri 04:19:00 PM 22.1075 -89.7061 356° North  Level FlightAware Approximate
Fri 04:20:00 PM 22.2294 -89.7163 356° North  Level FlightAware Approximate
Fri 04:21:00 PM 22.3516 -89.7212 358° North  Level FlightAware Approximate
Fri 04:22:00 PM 22.4738 -89.7259 358° North  Level FlightAware Approximate
Fri 04:23:00 PM 22.5959 -89.7306 358° North  Level FlightAware Approximate
Fri 04:24:00 PM 22.7155 -89.7359 357° North  Level FlightAware Approximate
Fri 04:25:00 PM 22.8350 -89.7424 357° North  Level FlightAware Approximate
Fri 04:26:00 PM 22.9545 -89.7488 357° North  Level FlightAware Approximate
Fri 04:27:00 PM 23.0740 -89.7552 357° North  Level FlightAware Approximate
Fri 04:28:00 PM 23.1935 -89.7617 357° North  Level FlightAware Approximate
Fri 04:29:00 PM 23.3130 -89.7681 357° North  Level FlightAware Approximate
Fri 04:30:00 PM 23.4326 -89.7746 357° North  Level FlightAware Approximate
Fri 04:31:00 PM 23.5521 -89.7811 357° North  Level FlightAware Approximate
Fri 04:32:00 PM 23.6716 -89.7876 357° North  Level FlightAware Approximate
Fri 04:33:00 PM 23.7911 -89.7941 357° North  Level FlightAware Approximate
Fri 04:34:00 PM 23.9106 -89.8006 357° North  Level FlightAware Approximate
Fri 04:35:00 PM 24.0301 -89.8074 357° North  Level FlightAware Approximate
Fri 04:36:00 PM 24.1496 -89.8142 357° North  Level FlightAware Approximate
Fri 04:37:00 PM 24.2691 -89.8211 357° North  Level FlightAware Approximate
Fri 04:38:00 PM 24.3886 -89.8279 357° North  Level FlightAware Approximate
Fri 04:39:00 PM 24.5081 -89.8351 356° North  Level FlightAware Approximate
Fri 04:40:00 PM 24.6275 -89.8436 356° North  Level FlightAware Approximate
Fri 04:41:00 PM 24.7470 -89.8515 357° North  Level FlightAware Approximate
Fri 04:42:00 PM 24.8665 -89.8576 357° North  Level FlightAware Approximate
Fri 04:43:00 PM 24.9860 -89.8636 357° North  Level FlightAware Approximate
Fri 04:44:00 PM 25.1056 -89.8696 357° North  Level FlightAware Approximate
Fri 04:45:00 PM 25.2251 -89.8757 357° North  Level FlightAware Approximate
Fri 04:46:00 PM 25.3446 -89.8818 357° North  Level FlightAware Approximate
Fri 04:47:00 PM 25.4641 -89.8878 357° North  Level FlightAware Approximate
Fri 04:48:00 PM 25.5837 -89.8940 357° North  Level FlightAware Approximate
Fri 04:49:00 PM 25.7032 -89.9001 357° North  Level FlightAware Approximate
Fri 04:50:00 PM 25.8227 -89.9062 357° North  Level FlightAware Approximate
Fri 04:51:00 PM 25.9423 -89.9123 357° North  Level FlightAware Approximate
Fri 04:52:00 PM 26.0618 -89.9185 357° North  Level FlightAware Approximate
Fri 04:53:00 PM 26.1813 -89.9246 357° North  Level FlightAware Approximate
Fri 04:54:00 PM 26.3009 -89.9308 357° North  Level FlightAware Approximate
Fri 04:55:00 PM 26.4204 -89.9376 357° North  Level FlightAware Approximate
Fri 04:55:38 PM 26.7458 -89.9653 357° North 438 504 36,000  Level Houston Center
Fri 04:56:00 PM 26.5399 -89.9448 357° North  Level FlightAware Approximate
Fri 04:56:43 PM 26.8675 -89.9747 356° North 438 504 36,000  Level Houston Center
Fri 04:57:00 PM 26.6594 -89.9521 357° North  Level FlightAware Approximate
Fri 04:57:43 PM 27.0147 -89.9486 North 439 505 35,200  Level Houston Center
Fri 04:58:00 PM 26.7789 -89.9593 357° North  Level FlightAware Approximate
Fri 04:58:45 PM 27.1358 -89.8867 24° Northeast 450 518 35,000  Level Houston Center
Fri 04:59:00 PM 26.8983 -89.9666 357° North  Level FlightAware Approximate
Fri 04:59:47 PM 27.2572 -89.8306 22° Northeast 461 531 35,000  Level Houston Center
Fri 05:00:00 PM 27.0178 -89.9739 357° North  Level FlightAware Approximate
Fri 05:00:49 PM 27.3789 -89.7742 22° Northeast 466 536 35,000  Level Houston Center
Fri 05:01:51 PM 27.5011 -89.7161 23° Northeast 469 540 35,000  Level Houston Center
Fri 05:02:54 PM 27.6236 -89.6611 22° Northeast 470 541 35,000  Level Houston Center
Fri 05:03:56 PM 27.7697 -89.5967 21° North 471 542 35,000  Level Houston Center
Fri 05:04:58 PM 27.8917 -89.5428 21° North 471 542 35,000 -48 Level Houston Center
Fri 05:06:00 PM 28.0144 -89.4878 22° Northeast 471 542 34,900  Descending Houston Center
Fri 05:07:02 PM 28.1358 -89.4333 22° Northeast 471 542 35,000 48 Climbing Houston Center
Fri 05:08:04 PM 28.2572 -89.3775 22° Northeast 471 542 35,000  Level Houston Center
Fri 05:09:07 PM 28.4042 -89.3125 21° North 471 542 35,000  Level Houston Center
Fri 05:10:09 PM 28.5264 -89.2575 22° Northeast 471 542 35,000  Level Houston Center
Fri 05:11:11 PM 28.6469 -89.2017 22° Northeast 471 542 35,000 -48 Level Houston Center
Fri 05:12:13 PM 28.7672 -89.1467 22° Northeast 469 540 34,900 -48 Descending Houston Center
Fri 05:13:15 PM 28.8883 -89.0919 22° Northeast 469 540 34,900  Level Houston Center
Fri 05:14:17 PM 29.0339 -89.0258 22° Northeast 469 540 34,900 48 Level Houston Center
Fri 05:15:20 PM 29.1569 -88.9703 22° Northeast 472 543 35,000 48 Climbing Houston Center
Fri 05:16:22 PM 29.2836 -88.9117 22° Northeast 484 557 35,000  Level Houston Center
Fri 05:17:24 PM 29.4089 -88.8539 22° Northeast 485 558 35,000  Level Houston Center
Fri 05:18:26 PM 29.5328 -88.7981 21° North 484 557 35,000 -48 Level Houston Center
Fri 05:19:28 PM 29.6806 -88.7292 22° Northeast 480 552 34,900  Descending Houston Center
Fri 05:20:31 PM 29.8033 -88.6717 22° Northeast 479 551 35,000 48 Climbing Houston Center
Fri 05:21:33 PM 29.9194 -88.6183 22° Northeast 479 551 35,000  Level Houston Center
Fri 05:22:35 PM 30.0425 -88.5603 22° Northeast 479 551 35,000  Level Houston Center
Fri 05:23:37 PM 30.1908 -88.4911 22° Northeast 479 551 35,000  Level Houston Center
Fri 05:24:39 PM 30.3142 -88.4347 22° Northeast 479 551 35,000  Level Houston Center
Fri 05:25:41 PM 30.4389 -88.3764 22° Northeast 479 551 35,000  Level Houston Center
Fri 05:26:44 PM 30.5642 -88.3167 22° Northeast 482 555 35,000  Level Houston Center
Fri 05:27:46 PM 30.6889 -88.2575 22° Northeast 483 556 35,000  Level Houston Center
Fri 05:28:48 PM 30.8189 -88.1958 22° Northeast 484 557 35,000  Level Houston Center
Fri 05:29:50 PM 30.9681 -88.1236 23° Northeast 485 558 35,000  Level Houston Center
Fri 05:30:52 PM 31.0933 -88.0650 22° Northeast 485 558 35,000 -48 Level Houston Center
Fri 05:31:55 PM 31.2169 -88.0061 22° Northeast 483 556 34,900  Descending Houston Center
Fri 05:32:57 PM 31.3517 -87.9383 23° Northeast 483 556 35,000 48 Climbing Houston Center
Fri 05:33:59 PM 31.4569 -87.8194 44° Northeast 539 620 35,000  Level Houston Center
Fri 05:35:01 PM 31.5475 -87.6742 54° Northeast 548 631 35,000  Level Houston Center
Fri 05:36:03 PM 31.6369 -87.5303 54° Northeast 548 631 35,000 -339 Level Houston Center
Fri 05:37:05 PM 31.7400 -87.3633 54° Northeast 548 631 34,300 -816 Descending Houston Center
Fri 05:38:08 PM 31.8342 -87.2125 54° Northeast 548 631 33,300 -960 Descending Houston Center
Fri 05:39:10 PM 31.9247 -87.0661 54° Northeast 551 634 32,300 -919 Descending Houston Center
Fri 05:40:12 PM 32.0144 -86.9206 54° Northeast 551 634 31,400 -919 Descending Houston Center
Fri 05:41:14 PM 32.1050 -86.7758 54° Northeast 550 633 30,400 -952 Descending Houston Center
Fri 05:42:18 PM 32.2100 -86.6236 51° Northeast 557 641 29,400 -677 Descending Atlanta Center
Fri 05:43:18 PM 32.2986 -86.4764 55° Northeast 557 641 29,000 -650 Descending Atlanta Center
Fri 05:44:18 PM 32.3789 -86.3211 58° Northeast 557 641 28,100 -942 Descending Atlanta Center
Fri 05:45:19 PM 32.4733 -86.1758 52° Northeast 550 633 27,100 -550 Descending Atlanta Center
Fri 05:46:18 PM 32.5783 -86.0108 53° Northeast 556 640 27,000 -50 Descending Atlanta Center
Fri 05:47:18 PM 32.6703 -85.8625 54° Northeast 562 647 27,000  Level Atlanta Center
Fri 05:48:18 PM 32.7536 -85.7331 53° Northeast 557 641 27,000 -1,300 Level Atlanta Center
Fri 05:49:18 PM 32.8433 -85.5842 54° Northeast 557 641 24,400 -2,550 Descending Atlanta Center
Fri 05:50:18 PM 32.9283 -85.4469 54° Northeast 540 621 21,900 -2,450 Descending Atlanta Center
Fri 05:51:18 PM 33.0069 -85.3144 55° Northeast 508 585 19,500 -2,400 Descending Atlanta Center
Fri 05:52:18 PM 33.0897 -85.1867 52° Northeast 472 543 17,100 -2,200 Descending Atlanta Center
Fri 05:53:18 PM 33.1533 -85.0833 54° Northeast 435 501 15,100 -1,650 Descending Atlanta Center
Fri 05:54:18 PM 33.2231 -84.9800 51° Northeast 414 476 13,800 -1,550 Descending Atlanta Center
Fri 05:55:18 PM 33.2967 -84.8839 47° Northeast 395 455 12,000 -900 Descending Atlanta Center
Fri 05:56:18 PM 33.3703 -84.7875 48° Northeast 389 448 12,000  Level Atlanta Center
Fri 05:57:18 PM 33.4481 -84.6936 45° Northeast 384 442 12,000  Level Atlanta Center
Fri 05:58:18 PM 33.5194 -84.6069 45° Northeast 384 442 12,000 -200 Level Atlanta Center
Fri 05:59:18 PM 33.5367 -84.5075 78° East 302 348 11,600 -800 Descending Atlanta Center
Fri 06:00:18 PM 33.5369 -84.4178 90° East 281 323 10,400 -1,412 Descending Atlanta Center
Fri 06:01:17 PM 33.5333 -84.3167 92° East 241 277 8,800 -1,752 Descending Atlanta TRACON
Fri 06:02:11 PM 33.5333 -84.2500 90° East 217 250 7,100 -1,895 Descending Atlanta TRACON
Fri 06:03:11 PM 33.5667 -84.2167 40° Northeast 194 223 5,200 -1,700 Descending Atlanta TRACON
Fri 06:04:11 PM 33.6000 -84.2667 309° West 182 209 3,700 -1,250 Descending Atlanta TRACON
Fri 06:05:11 PM 33.6167 -84.3167 292° West 179 206 2,700 -939 Descending Atlanta TRACON
Fri 06:06:06 PM 33.6167 -84.3667 270° West 147 169 1,900 -783 Descending Atlanta TRACON
Fri 06:07:06 PM 33.6167 -84.4167 270° West 125 144 1,200 -700 Descending Atlanta TRACON

Login

Don't have an account? Register now (free) for customized features, flight alerts, and more!